Klemme/'s Corner

Nearby METAR Reports

 

KSJC - San Jose, California, USA
Distance from station: NE 9mi, 14km
Updated: Mon, Dec-11-2017 8:53pm EST
Mostly cloudy
Mostly cloudy
 Wind from WNW
Wind: WNW 3 mph , 6 km/h
Temperature: 57°F , 14°C
Dew Point: 36°F , 2°C
Humidity: 44%
Barometer: 30.28 inHg , 1025.4 hPa
Clouds: Mostly cloudy
Visibility: 10 miles , 16 km
Cloud details: Partly cloudy 6500 ft
Mostly cloudy 10000 ft
Mostly cloudy 12000 ft
2017/12/12 01:53 KSJC 120153Z 29003KT 10SM SCT065 BKN100 BKN120 14/02 A3028 RMK AO2 SLP252 FU SCT065 T01440022 $
KNUQ - Moffett Nas/Mtn, California, USA
Distance from station: N 9mi, 14km
Updated: Mon, Dec-11-2017 8:56pm EST
Clear
Clear
 Wind from calm
Wind: Calm
Temperature: 55°F , 13°C
Dew Point: 41°F , 5°C
Humidity: 59%
Barometer: 30.29 inHg , 1025.7 hPa
Clouds: Clear
Visibility: 10 miles , 16 km
2017/12/12 01:56 KNUQ 120156Z 00000KT 10SM CLR 13/05 A3029 RMK AO2 SLP259 T01330050
 
KPAO - Palo Alto, California, USA
Distance from station: NNW 14mi, 23km
Updated: Mon, Dec-11-2017 8:47pm EST
Clear
Clear
 Wind from calm
Wind: Calm
Temperature: 50°F , 10°C
Dew Point: 43°F , 6°C
Humidity: 76%
Barometer: 30.28 inHg , 1025.4 hPa
Clouds: Clear
Visibility: 10 miles , 16 km
2017/12/12 01:47 KPAO 120147Z 00000KT 10SM SKC 10/06 A3028
KRHV - San Jose/Reid, California, USA
Distance from station: ENE 12mi, 19km
Updated: Mon, Dec-11-2017 8:47pm EST
Mostly cloudy
Mostly cloudy
 Wind from calm
Wind: Calm
Temperature: 59°F , 15°C
Dew Point: 37°F , 3°C
Humidity: 45%
Barometer: 30.26 inHg , 1024.7 hPa
Clouds: Mostly cloudy
Visibility: 10 miles , 16 km
Cloud details: Mostly cloudy 10000 ft
2017/12/12 01:47 KRHV 120147Z 00000KT 10SM BKN100 15/03 A3026
 
KOAK - Oakland, California, USA
Distance from station: NNW 31mi, 50km
Updated: Mon, Dec-11-2017 8:53pm EST
Mostly cloudy
Mostly cloudy
 Wind from WNW
Wind: WNW 3 mph , 6 km/h
Temperature: 54°F , 12°C
Dew Point: 41°F , 5°C
Humidity: 63%
Barometer: 30.29 inHg , 1025.7 hPa
Clouds: Mostly cloudy
Visibility: 10 miles , 16 km
Cloud details: Few Clouds 5000 ft
Mostly cloudy 20000 ft
Mostly cloudy 23000 ft
2017/12/12 01:53 KOAK 120153Z 29003KT 10SM FEW050 BKN200 BKN230 12/05 A3029 RMK AO2 SLP255 T01220050
KSQL - San Carlos Airpo, California, USA
Distance from station: NW 21mi, 34km
Updated: Mon, Dec-11-2017 8:47pm EST
Clear
Clear
 Wind from calm
Wind: Calm
Temperature: 57°F , 14°C
Dew Point: 39°F , 4°C
Humidity: 51%
Barometer: 30.28 inHg , 1025.4 hPa
Clouds: Clear
Visibility: 10 miles , 16 km
2017/12/12 01:47 KSQL 120147Z 00000KT 10SM SKC 14/04 A3028
 
KSFO - San Francisco, California, USA
Distance from station: NW 30mi, 49km
Updated: Mon, Dec-11-2017 8:56pm EST
Mostly cloudy
Mostly cloudy
 Wind from calm
Wind: Calm
Temperature: 61°F , 16°C
Dew Point: 37°F , 3°C
Humidity: 42%
Barometer: 30.28 inHg , 1025.4 hPa
Clouds: Mostly cloudy
Visibility: 10 miles , 16 km
Cloud details: Mostly cloudy 20000 ft
2017/12/12 01:56 KSFO 120156Z 00000KT 10SM BKN200 16/03 A3028 RMK AO2 SLP253 T01560033
KE16 - San Martin, California, USA
Distance from station: ESE 27mi, 43km
Updated: Mon, Dec-11-2017 9:10pm EST
Overcast
Overcast
 Wind from NNW
Wind: NNW 7 mph , 11 km/h
Temperature: 57°F , 14°C
Dew Point: 37°F , 3°C
Humidity: 48%
Barometer: 30.29 inHg , 1025.7 hPa
Clouds: Overcast
Visibility: 10 miles , 16 km
Cloud details: Overcast 5000 ft
2017/12/12 02:10 KE16 120210Z AUTO 33006KT 10SM OVC050 14/03 A3029 RMK AO2 PWINO PNO
 
KWVI - Watsonville, California, USA
Distance from station: SSE 27mi, 44km
Updated: Mon, Dec-11-2017 8:53pm EST
Clear
Clear
 Wind from calm
Wind: Calm
Temperature: 59°F , 15°C
Dew Point: 41°F , 5°C
Humidity: 51%
Barometer: 30.25 inHg , 1024.4 hPa
Clouds: Clear
Visibility: 10 miles , 16 km
2017/12/12 01:53 KWVI 120153Z AUTO 00000KT 10SM CLR 15/05 A3025 RMK AO2 SLP243 T01500050
KHAF - Half Moon Bay, California, USA
Distance from station: WNW 31mi, 50km
Updated: Mon, Dec-11-2017 9:15pm EST
Overcast
Overcast
 Wind from E
Wind: E 8 mph , 13 km/h
Temperature: 64°F , 18°C
Dew Point: 30°F , -1°C
Humidity: 28%
Barometer: 30.23 inHg , 1023.7 hPa
Clouds: Overcast
Visibility: 10 miles , 16 km
Cloud details: Overcast 5000 ft
2017/12/12 02:15 KHAF 120215Z AUTO 08007KT 10SM OVC050 18/M01 A3023 RMK AO2
 
KHWD - Hayward, California, USA
Distance from station: N 28mi, 44km
Updated: Mon, Dec-11-2017 8:54pm EST
Clear
Clear
 Wind from NE
Wind: NE 6 mph , 9 km/h
Temperature: 59°F , 15°C
Dew Point: 30°F , -1°C
Humidity: 34%
Barometer: 30.28 inHg , 1025.4 hPa
Clouds: Clear
Visibility: 10 miles , 16 km
2017/12/12 01:54 KHWD 120154Z 05005KT 10SM CLR 15/M01 A3028 RMK AO2 SLP264 T01501011
KLVK - Livermore, California, USA
Distance from station: NNE 31mi, 51km
Updated: Mon, Dec-11-2017 8:53pm EST
Clear
Clear
 Wind from NNE
Wind: NNE 6 mph , 9 km/h
Temperature: 54°F , 12°C
Dew Point: 36°F , 2°C
Humidity: 51%
Barometer: 30.29 inHg , 1025.7 hPa
Clouds: Clear
Visibility: 10 miles , 16 km
2017/12/12 01:53 KLVK 120153Z 03005KT 10SM CLR 12/02 A3029 RMK AO2 SLP258 T01220017